Time;durP1;ratioP1;P1;durP2;ratioP2;P2;SDS_P1;SDS_P2;PMS_P1;PMS_P2;Temp;Humidity;BMP_temperature;BMP_pressure;BME280_temperature;BME280_humidity;BME280_pressure;Samples;Min_cycle;Max_cycle;Signal;HPM_P1;HPM_P2
2022/07/23 00:01:32;;;;;;;6.67;4.80;;;;;;;19.05;60.91;99501.59;1715558;83;21032;-42
2022/07/23 00:04:00;;;;;;;10.68;5.08;;;;;;;19.05;60.94;99500.81;1715425;83;21537;-42
2022/07/23 00:06:27;;;;;;;8.35;4.60;;;;;;;19.04;60.92;99493.75;1708235;83;21104;-42
2022/07/23 00:08:53;;;;;;;6.33;4.50;;;;;;;19.03;60.90;99499.06;1708044;84;21014;-42
2022/07/23 00:11:22;;;;;;;14.53;5.62;;;;;;;19.01;60.94;99495.96;1707866;84;20969;-42
2022/07/23 00:13:51;;;;;;;19.02;6.50;;;;;;;19.01;61.20;99492.62;1707863;84;21013;-42
2022/07/23 00:16:19;;;;;;;8.35;4.53;;;;;;;19.00;61.76;99491.06;1707962;84;21574;-42
2022/07/23 00:18:46;;;;;;;6.67;4.35;;;;;;;19.00;61.31;99491.06;1707819;84;21088;-42
2022/07/23 00:21:15;;;;;;;6.60;4.42;;;;;;;19.03;61.06;99486.10;1707792;84;21609;-42
2022/07/23 00:23:42;;;;;;;6.30;4.17;;;;;;;19.08;60.89;99492.52;1707758;84;21227;-42
2022/07/23 00:26:09;;;;;;;5.67;4.28;;;;;;;19.12;61.46;99491.11;1707653;84;20968;-42
2022/07/23 00:28:37;;;;;;;6.60;4.15;;;;;;;19.12;61.49;99484.23;1707647;84;21004;-42
2022/07/23 00:31:04;;;;;;;6.97;3.83;;;;;;;19.15;61.25;99485.37;1707628;84;21001;-42
2022/07/23 00:33:32;;;;;;;6.30;4.00;;;;;;;19.15;61.38;99479.88;1707732;84;21534;-42
2022/07/23 00:36:00;;;;;;;5.97;4.10;;;;;;;19.13;61.39;99483.02;1702936;84;21575;-42
2022/07/23 00:38:27;;;;;;;4.53;3.47;;;;;;;19.12;61.57;99486.20;1707513;84;20973;-42
2022/07/23 00:40:54;;;;;;;4.70;3.58;;;;;;;19.10;61.50;99490.73;1707482;84;20978;-42
2022/07/23 00:43:21;;;;;;;5.67;3.45;;;;;;;19.08;61.36;99486.23;1707755;84;21024;-42
2022/07/23 00:45:48;;;;;;;3.25;2.90;;;;;;;19.06;61.06;99487.26;1707631;84;21080;-42
2022/07/23 00:48:17;;;;;;;4.83;2.90;;;;;;;19.07;61.33;99488.82;1707852;84;21858;-42
2022/07/23 00:50:44;;;;;;;4.62;3.80;;;;;;;19.05;61.73;99490.59;1707894;84;21493;-42
2022/07/23 00:53:11;;;;;;;5.45;3.70;;;;;;;19.04;62.55;99491.78;1707690;84;21028;-42
2022/07/23 00:55:39;;;;;;;6.87;3.80;;;;;;;18.99;62.89;99497.73;1707720;84;21052;-42
2022/07/23 00:58:06;;;;;;;6.45;3.62;;;;;;;18.98;63.03;99505.01;1707783;84;21105;-42
2022/07/23 01:00:35;;;;;;;5.87;3.55;;;;;;;19.00;62.84;99507.55;1707682;84;21138;-42
2022/07/23 01:03:04;;;;;;;5.20;3.67;;;;;;;19.02;62.28;99503.02;1707464;84;21101;-42
2022/07/23 01:05:31;;;;;;;3.60;3.30;;;;;;;19.03;61.99;99503.18;1708271;82;20984;-42
2022/07/23 01:07:58;;;;;;;4.15;3.30;;;;;;;19.03;61.98;99504.55;1707536;84;21052;-42
2022/07/23 01:10:32;;;;;;;5.22;3.87;;;;;;;19.01;62.05;99504.20;1707831;84;20993;-42
2022/07/23 01:13:05;;;;;;;4.72;3.52;;;;;;;19.00;62.50;99506.77;1707659;84;23164;-42
2022/07/23 01:15:34;;;;;;;5.67;3.95;;;;;;;18.97;62.51;99511.72;1707546;84;21037;-42
2022/07/23 01:18:04;;;;;;;5.85;3.77;;;;;;;18.94;62.03;99507.03;1707640;84;20965;-42
2022/07/23 01:20:32;;;;;;;4.67;3.92;;;;;;;18.91;61.85;99510.61;1707625;84;21016;-42
2022/07/23 01:22:59;;;;;;;7.28;3.90;;;;;;;18.89;61.81;99511.61;1686452;84;21554;-42
2022/07/23 01:25:27;;;;;;;6.45;4.30;;;;;;;18.84;61.63;99513.43;1707999;84;21147;-42
2022/07/23 01:27:59;;;;;;;4.90;4.30;;;;;;;18.77;61.85;99510.19;1743490;81;21547;-42
2022/07/23 01:30:27;;;;;;;6.45;4.30;;;;;;;18.74;62.08;99519.83;1743695;81;21483;-42
2022/07/23 01:32:55;;;;;;;6.28;4.87;;;;;;;18.69;62.20;99524.42;1743503;82;21542;-42
2022/07/23 01:35:22;;;;;;;6.55;4.87;;;;;;;18.61;62.17;99528.61;1743582;81;21044;-42
2022/07/23 01:37:50;;;;;;;6.17;4.60;;;;;;;18.57;62.23;99525.12;1743628;82;21239;-42
2022/07/23 01:40:18;;;;;;;7.53;4.45;;;;;;;18.54;62.40;99525.92;1743627;81;21024;-42
2022/07/23 01:42:47;;;;;;;5.20;4.70;;;;;;;18.52;62.51;99524.76;1743352;82;20906;-42
2022/07/23 01:45:14;;;;;;;6.60;4.83;;;;;;;18.53;62.84;99527.70;1743207;82;21576;-42
2022/07/23 01:47:43;;;;;;;5.90;4.40;;;;;;;18.55;63.13;99522.00;1707493;84;21068;-42
2022/07/23 01:50:11;;;;;;;5.10;4.05;;;;;;;18.58;63.25;99521.20;1707500;84;23174;-42
2022/07/23 01:52:43;;;;;;;6.15;4.17;;;;;;;18.61;63.36;99528.61;1707055;84;20973;-42
2022/07/23 01:55:11;;;;;;;5.10;4.30;;;;;;;18.62;63.06;99528.80;1707760;84;21586;-42
2022/07/23 01:57:40;;;;;;;5.33;4.08;;;;;;;18.63;63.32;99528.99;1743341;81;20974;-42
2022/07/23 02:00:10;;;;;;;4.95;4.20;;;;;;;18.59;63.19;99529.59;1743515;82;21084;-42
2022/07/23 02:02:45;;;;;;;5.28;4.28;;;;;;;18.52;62.71;99528.28;1707677;83;21244;-42
2022/07/23 02:05:12;;;;;;;6.47;4.75;;;;;;;18.39;62.62;99531.97;1707643;84;21009;-42
2022/07/23 02:07:39;;;;;;;4.62;4.00;;;;;;;18.30;62.85;99533.03;1707651;83;20988;-42
2022/07/23 02:10:08;;;;;;;5.22;4.12;;;;;;;18.25;62.88;99533.64;1707848;84;21582;-42
2022/07/23 02:12:37;;;;;;;7.35;4.05;;;;;;;18.25;62.95;99536.97;1743573;82;21544;-42
2022/07/23 02:15:06;;;;;;;6.67;4.50;;;;;;;18.23;63.02;99533.28;1743527;81;22085;-42
2022/07/23 02:20:27;;;;;;;5.08;4.33;;;;;;;18.28;63.43;99534.02;1815355;79;22717;-41
2022/07/23 02:22:54;;;;;;;5.30;4.33;;;;;;;18.19;63.62;99533.13;1788309;80;20941;-41
2022/07/23 02:25:22;;;;;;;6.95;4.75;;;;;;;18.22;63.58;99532.31;1788487;80;21518;-41
2022/07/23 02:27:49;;;;;;;5.35;4.50;;;;;;;18.25;63.41;99538.34;1788394;80;21588;-41
2022/07/23 02:30:16;;;;;;;5.65;4.28;;;;;;;18.27;63.47;99546.97;1788513;80;20985;-41
2022/07/23 02:32:45;;;;;;;6.67;4.62;;;;;;;18.26;63.54;99534.42;1788469;80;20984;-41
2022/07/23 02:35:13;;;;;;;5.60;4.65;;;;;;;18.21;63.41;99532.90;1788732;80;20987;-41
2022/07/23 02:37:41;;;;;;;6.95;4.70;;;;;;;18.16;63.41;99538.82;1788711;80;21201;-41
2022/07/23 02:40:11;;;;;;;6.05;4.60;;;;;;;18.13;63.56;99551.21;1788366;80;21011;-41
2022/07/23 02:42:39;;;;;;;8.05;5.22;;;;;;;18.12;63.52;99552.39;1788631;80;20937;-41
2022/07/23 02:45:08;;;;;;;5.80;4.45;;;;;;;18.08;63.41;99552.42;1788497;80;20933;-41
2022/07/23 02:47:34;;;;;;;6.95;4.17;;;;;;;18.02;63.52;99554.62;1788545;80;20992;-41
2022/07/23 02:50:03;;;;;;;8.95;5.25;;;;;;;18.02;63.75;99549.14;1788438;80;21246;-41
2022/07/23 02:52:31;;;;;;;8.77;5.17;;;;;;;18.03;63.79;99545.22;1788595;80;21008;-41
2022/07/23 02:54:58;;;;;;;5.97;4.20;;;;;;;18.08;63.81;99554.39;1788265;80;20999;-41
2022/07/23 02:57:26;;;;;;;7.37;4.67;;;;;;;18.11;63.77;99552.20;1749012;81;20993;-41
2022/07/23 02:59:53;;;;;;;5.17;4.50;;;;;;;18.13;63.87;99556.11;1748847;82;21076;-41
2022/07/23 03:02:22;;;;;;;5.67;4.37;;;;;;;18.15;64.01;99554.34;1748906;82;20988;-41
2022/07/23 03:04:50;;;;;;;5.47;4.83;;;;;;;18.12;63.81;99553.77;1748839;82;21597;-41
2022/07/23 03:07:18;;;;;;;8.03;5.08;;;;;;;18.06;63.75;99552.63;1748886;81;21498;-41
2022/07/23 03:09:45;;;;;;;7.00;5.00;;;;;;;17.98;63.89;99560.73;1748711;82;20965;-41
2022/07/23 03:12:13;;;;;;;6.55;4.65;;;;;;;17.89;64.27;99554.34;1748894;82;21034;-41
2022/07/23 03:14:41;;;;;;;7.90;5.00;;;;;;;17.81;64.57;99557.72;1749130;81;21624;-41
2022/07/23 03:17:09;;;;;;;6.20;4.85;;;;;;;17.80;64.83;99558.14;1748801;82;20927;-41
2022/07/23 03:19:38;;;;;;;7.45;5.10;;;;;;;17.84;64.92;99563.00;1749365;82;21067;-41
2022/07/23 03:22:07;;;;;;;7.97;4.90;;;;;;;17.93;64.84;99565.28;1749529;82;21037;-41
2022/07/23 03:27:25;;;;;;;6.55;4.67;;;;;;;18.10;64.56;99560.27;1749676;82;21142;-41
2022/07/23 03:29:53;;;;;;;6.15;5.05;;;;;;;18.18;64.57;99568.02;1749505;82;20933;-41
2022/07/23 03:32:21;;;;;;;5.67;4.80;;;;;;;18.25;64.45;99569.31;1749242;82;21005;-41
2022/07/23 03:34:48;;;;;;;8.10;5.08;;;;;;;18.31;64.50;99565.55;1749034;82;21515;-41
2022/07/23 03:37:15;;;;;;;5.85;4.97;;;;;;;18.36;64.35;99567.85;1749221;82;21506;-41
2022/07/23 03:39:42;;;;;;;6.75;5.20;;;;;;;18.42;64.20;99567.61;1749040;82;21267;-41
2022/07/23 03:42:10;;;;;;;6.20;4.78;;;;;;;18.44;64.05;99567.99;1748892;82;20977;-41
2022/07/23 03:44:37;;;;;;;8.28;4.75;;;;;;;18.49;64.08;99570.27;1749210;82;20969;-41
2022/07/23 03:47:05;;;;;;;8.18;5.08;;;;;;;18.55;64.12;99574.76;1748901;82;20989;-41
2022/07/23 03:49:34;;;;;;;6.78;4.67;;;;;;;18.57;63.92;99563.56;1749336;82;21045;-41
2022/07/23 03:52:02;;;;;;;5.60;4.78;;;;;;;18.63;63.94;99572.93;1749445;82;21229;-41
2022/07/23 03:54:30;;;;;;;6.17;4.70;;;;;;;18.68;63.82;99566.80;1749191;82;20988;-41
2022/07/23 03:56:58;;;;;;;7.17;4.80;;;;;;;18.71;63.51;99573.63;1749297;82;21010;-41
2022/07/23 03:59:25;;;;;;;6.10;4.85;;;;;;;18.78;63.39;99578.27;1749361;82;21494;-41
2022/07/23 04:01:51;;;;;;;5.95;4.90;;;;;;;18.81;63.44;99571.95;1749314;82;20978;-41
2022/07/23 04:04:18;;;;;;;6.62;4.72;;;;;;;18.86;63.59;99571.50;1749259;82;21081;-41
2022/07/23 04:06:45;;;;;;;6.42;4.80;;;;;;;18.91;63.48;99570.45;1749032;82;20976;-41
2022/07/23 04:09:13;;;;;;;8.33;5.20;;;;;;;18.99;63.52;99569.17;1749013;82;20933;-41
2022/07/23 04:11:40;;;;;;;7.42;4.65;;;;;;;19.03;63.33;99563.62;1749029;82;20965;-41
2022/07/23 04:14:10;;;;;;;5.67;4.62;;;;;;;19.10;63.45;99564.93;1749062;82;20942;-41
2022/07/23 04:16:39;;;;;;;7.25;4.55;;;;;;;19.18;63.43;99567.77;1748887;82;22065;-41
2022/07/23 04:19:06;;;;;;;4.78;4.28;;;;;;;19.25;63.29;99566.31;1748810;81;21049;-41
2022/07/23 04:21:36;;;;;;;;;;;;;;;19.35;63.21;99572.86;1750571;82;20989;-41
2022/07/23 04:24:04;;;;;;;6.12;4.50;;;;;;;19.45;63.03;99568.63;1748940;82;20170;-41
2022/07/23 04:26:32;;;;;;;5.70;4.22;;;;;;;19.45;63.13;99570.00;1749060;82;21510;-41
2022/07/23 04:28:59;;;;;;;5.17;4.00;;;;;;;19.55;62.91;99574.39;1748961;82;22110;-41
2022/07/23 04:31:26;;;;;;;6.42;4.80;;;;;;;19.62;62.81;99575.05;1749005;82;20976;-41
2022/07/23 04:33:53;;;;;;;6.33;4.50;;;;;;;19.68;62.63;99583.63;1749020;82;20980;-41
2022/07/23 04:36:21;;;;;;;5.92;4.20;;;;;;;19.69;62.82;99579.69;1749201;82;21012;-41
2022/07/23 04:38:48;;;;;;;5.92;4.78;;;;;;;19.70;62.88;99582.63;1749075;82;21088;-41
2022/07/23 04:41:15;;;;;;;7.37;5.25;;;;;;;19.72;63.12;99580.22;1749077;82;23131;-41
2022/07/23 04:43:44;;;;;;;7.17;4.85;;;;;;;19.79;63.05;99582.28;1748977;82;20898;-41
2022/07/23 04:46:12;;;;;;;7.83;5.15;;;;;;;19.88;63.16;99581.76;1749329;82;20934;-41
2022/07/23 04:48:42;;;;;;;8.48;4.97;;;;;;;19.96;62.88;99585.34;1749040;82;21052;-41
2022/07/23 04:51:10;;;;;;;6.10;5.42;;;;;;;20.07;62.87;99581.66;1749129;82;20994;-41
2022/07/23 04:53:38;;;;;;;6.12;5.00;;;;;;;20.16;62.84;99575.80;1743364;82;21234;-41
2022/07/23 04:56:06;;;;;;;7.25;5.60;;;;;;;20.26;62.94;99576.22;1749095;82;21551;-41
2022/07/23 04:58:34;;;;;;;5.60;5.00;;;;;;;20.36;62.75;99577.27;1749683;82;20938;-41
2022/07/23 05:01:01;;;;;;;5.60;4.15;;;;;;;20.46;62.56;99579.65;1749028;82;20996;-41
2022/07/23 05:03:29;;;;;;;5.90;5.30;;;;;;;20.53;62.45;99575.38;1748965;82;21057;-41
2022/07/23 05:05:56;;;;;;;6.30;4.75;;;;;;;20.60;62.34;99580.77;1748957;82;21335;-41
2022/07/23 05:08:24;;;;;;;5.90;5.03;;;;;;;20.65;62.28;99575.55;1748827;82;20944;-41
2022/07/23 05:10:52;;;;;;;5.47;4.80;;;;;;;20.73;62.30;99581.10;1749250;82;21033;-41
2022/07/23 05:13:21;;;;;;;5.53;4.65;;;;;;;20.79;62.21;99582.17;1749213;82;20950;-41
2022/07/23 05:15:50;;;;;;;6.10;3.98;;;;;;;20.88;62.27;99583.58;1749274;82;21029;-41
2022/07/23 05:18:19;;;;;;;5.95;4.40;;;;;;;20.94;62.03;99579.14;1749050;82;20952;-41
2022/07/23 05:20:46;;;;;;;5.00;4.40;;;;;;;21.03;62.00;99575.22;1748938;81;20990;-41
2022/07/23 05:23:15;;;;;;;4.30;3.90;;;;;;;21.12;61.69;99581.72;1749207;82;21000;-41
2022/07/23 05:25:42;;;;;;;5.80;3.45;;;;;;;21.23;61.93;99582.31;1749140;81;20934;-41
2022/07/23 05:28:09;;;;;;;5.70;3.72;;;;;;;21.34;61.30;99584.07;1748956;82;21526;-41
2022/07/23 05:30:37;;;;;;;4.55;3.47;;;;;;;21.48;60.97;99586.52;1748867;82;23127;-41
2022/07/23 05:33:07;;;;;;;4.60;3.70;;;;;;;21.60;60.48;99579.73;1748937;82;21581;-41
2022/07/23 05:35:34;;;;;;;5.67;3.40;;;;;;;21.72;60.13;99582.43;1749241;82;20922;-41
2022/07/23 05:38:09;;;;;;;3.42;2.72;;;;;;;21.82;60.00;99578.66;1734421;82;20961;-41
2022/07/23 05:40:36;;;;;;;4.50;2.77;;;;;;;21.93;59.24;99577.80;1749027;82;20993;-41
2022/07/23 05:43:04;;;;;;;3.25;2.40;;;;;;;22.07;58.19;99576.72;1749163;82;21539;-41
2022/07/23 05:45:32;;;;;;;3.42;2.60;;;;;;;22.19;57.57;99573.84;1749034;82;20922;-41
2022/07/23 05:47:59;;;;;;;4.05;2.50;;;;;;;22.32;57.23;99581.59;1749086;82;20961;-41
2022/07/23 05:50:30;;;;;;;3.92;2.90;;;;;;;22.44;57.08;99589.19;1748207;82;21535;-42
2022/07/23 05:52:59;;;;;;;4.00;2.85;;;;;;;22.53;56.98;99580.45;1748794;82;21073;-41
2022/07/23 05:55:45;;;;;;;6.40;2.40;;;;;;;22.63;57.41;99581.98;1749238;82;21135;-41
2022/07/23 05:58:14;;;;;;;3.15;2.60;;;;;;;22.73;56.49;99586.48;1749074;82;21523;-41
2022/07/23 06:00:41;;;;;;;3.80;2.30;;;;;;;22.83;56.31;99585.42;1749170;82;21001;-41
2022/07/23 06:03:08;;;;;;;4.10;2.77;;;;;;;22.91;56.08;99585.39;1749042;82;21025;-42
2022/07/23 06:05:38;;;;;;;5.45;2.10;;;;;;;23.00;56.05;99581.98;1748971;82;21566;-42
2022/07/23 06:08:07;;;;;;;3.70;2.02;;;;;;;23.07;55.85;99580.41;1748588;82;21874;-42
2022/07/23 06:10:34;;;;;;;3.75;2.02;;;;;;;23.13;54.83;99580.05;1748956;82;21542;-41
2022/07/23 06:13:02;;;;;;;2.83;2.00;;;;;;;23.23;53.76;99574.81;1749066;82;21043;-42
2022/07/23 06:15:30;;;;;;;4.72;2.10;;;;;;;23.33;53.38;99573.73;1749138;82;21692;-42
2022/07/23 06:17:58;;;;;;;3.85;2.33;;;;;;;23.47;53.07;99578.09;1749007;82;20953;-42
2022/07/23 06:20:25;;;;;;;2.30;1.50;;;;;;;23.56;52.43;99574.05;1742809;81;21528;-42
2022/07/23 06:22:54;;;;;;;2.05;1.85;;;;;;;23.62;52.51;99575.84;1734763;82;20942;-42
2022/07/23 06:25:21;;;;;;;2.10;1.90;;;;;;;23.71;51.88;99573.78;1735024;82;21005;-42
2022/07/23 06:27:49;;;;;;;2.75;1.65;;;;;;;23.81;51.43;99576.23;1734949;82;21005;-42
2022/07/23 06:30:18;;;;;;;2.65;1.55;;;;;;;23.90;51.45;99578.92;1735120;82;21488;-42
2022/07/23 06:32:46;;;;;;;2.52;1.80;;;;;;;23.99;50.74;99582.57;1735228;82;21941;-42
2022/07/23 06:35:14;;;;;;;3.60;1.80;;;;;;;24.07;50.77;99582.50;1735339;82;21049;-42
2022/07/23 06:37:43;;;;;;;3.37;1.77;;;;;;;24.18;50.32;99584.34;1734991;82;21037;-42
2022/07/23 06:40:12;;;;;;;2.72;1.70;;;;;;;24.30;49.70;99586.16;1734998;82;20989;-42
2022/07/23 06:42:41;;;;;;;3.00;1.50;;;;;;;24.40;49.40;99594.09;1735572;82;21801;-42
2022/07/23 06:45:10;;;;;;;3.10;1.50;;;;;;;24.50;48.77;99593.56;1734869;82;23339;-42
2022/07/23 06:47:38;;;;;;;1.55;1.42;;;;;;;24.59;48.92;99598.58;1735271;82;20934;-42
2022/07/23 06:50:07;;;;;;;4.05;1.65;;;;;;;24.67;48.76;99598.52;1735219;82;21001;-42
2022/07/23 06:52:35;;;;;;;3.85;1.62;;;;;;;24.78;48.27;99600.14;1735014;82;21042;-42
2022/07/23 06:55:04;;;;;;;1.85;1.50;;;;;;;24.88;47.72;99593.48;1735136;82;21029;-42
2022/07/23 06:57:31;;;;;;;5.22;1.70;;;;;;;24.97;47.92;99593.55;1735211;82;21124;-42
2022/07/23 07:00:00;;;;;;;2.47;1.57;;;;;;;25.03;47.33;99587.56;1734783;82;20978;-42
2022/07/23 07:02:27;;;;;;;4.33;2.10;;;;;;;25.10;47.82;99591.47;1734950;82;21033;-42
2022/07/23 07:04:56;;;;;;;1.42;1.27;;;;;;;25.18;47.60;99585.81;1735099;82;21575;-42
2022/07/23 07:07:23;;;;;;;1.93;1.40;;;;;;;25.28;44.99;99586.03;1735347;82;21045;-42
2022/07/23 07:09:50;;;;;;;4.20;1.57;;;;;;;25.37;45.29;99583.30;1735059;82;21145;-42
2022/07/23 07:12:17;;;;;;;2.05;1.35;;;;;;;25.47;45.56;99586.91;1735096;82;20958;-42
2022/07/23 07:14:46;;;;;;;2.33;1.40;;;;;;;25.59;44.41;99579.75;1735170;82;20983;-42
2022/07/23 07:17:15;;;;;;;4.15;1.70;;;;;;;25.69;44.07;99584.12;1735072;82;21026;-42
2022/07/23 07:19:42;;;;;;;2.43;1.57;;;;;;;25.75;43.93;99582.30;1735272;81;20983;-42
2022/07/23 07:22:09;;;;;;;2.15;1.50;;;;;;;25.81;43.50;99583.22;1734967;82;21246;-42
2022/07/23 07:24:36;;;;;;;4.47;1.60;;;;;;;25.88;43.19;99569.84;1735094;82;21014;-42
2022/07/23 07:27:22;;;;;;;6.83;1.70;;;;;;;25.97;43.13;99577.42;1735098;82;21065;-42
2022/07/23 07:29:49;;;;;;;1.60;1.50;;;;;;;26.04;42.78;99574.37;1735079;82;21105;-42
2022/07/23 07:32:16;;;;;;;4.83;1.70;;;;;;;26.13;43.27;99577.17;1735338;82;21503;-42
2022/07/23 07:34:43;;;;;;;3.35;1.62;;;;;;;26.23;43.16;99578.77;1735371;82;21592;-42
2022/07/23 07:37:10;;;;;;;2.62;1.60;;;;;;;26.35;43.06;99582.63;1735276;82;21547;-42
2022/07/23 07:39:38;;;;;;;2.98;1.80;;;;;;;26.44;42.35;99573.52;1735261;82;21006;-42
2022/07/23 07:42:05;;;;;;;2.92;1.70;;;;;;;26.54;42.86;99583.42;1735139;82;21010;-42
2022/07/23 07:44:32;;;;;;;4.72;1.52;;;;;;;26.63;42.34;99576.47;1735423;82;21078;-42
2022/07/23 07:46:59;;;;;;;2.65;1.72;;;;;;;26.70;41.41;99583.91;1735157;82;21136;-42
2022/07/23 07:49:26;;;;;;;4.97;1.70;;;;;;;26.75;41.14;99575.55;1734734;82;21467;-42
2022/07/23 07:51:54;;;;;;;3.67;1.65;;;;;;;26.80;41.01;99575.71;1735020;82;21028;-42
2022/07/23 07:54:21;;;;;;;1.98;1.30;;;;;;;26.90;40.63;99581.30;1735059;82;21109;-42
2022/07/23 07:56:48;;;;;;;3.40;1.60;;;;;;;26.99;40.13;99583.45;1735208;82;20998;-42
2022/07/23 07:59:15;;;;;;;2.20;1.57;;;;;;;27.07;40.34;99579.72;1735395;82;21105;-42
2022/07/23 08:01:42;;;;;;;4.70;1.70;;;;;;;27.17;40.42;99577.84;1735063;82;20981;-42
2022/07/23 08:04:09;;;;;;;2.33;1.50;;;;;;;27.31;40.29;99581.21;1735106;82;21021;-42
2022/07/23 08:06:38;;;;;;;4.10;1.70;;;;;;;27.40;40.37;99581.95;1735162;82;21013;-42
2022/07/23 08:09:05;;;;;;;3.50;1.65;;;;;;;27.47;40.31;99578.86;1735106;82;21089;-42
2022/07/23 08:11:32;;;;;;;2.15;1.55;;;;;;;27.53;39.81;99575.63;1735222;82;21233;-42
2022/07/23 08:14:00;;;;;;;1.87;1.30;;;;;;;27.61;39.14;99578.84;1735200;82;21048;-42
2022/07/23 08:16:28;;;;;;;2.80;1.67;;;;;;;27.68;39.66;99582.69;1735167;82;20942;-42
2022/07/23 08:18:55;;;;;;;2.37;1.65;;;;;;;27.78;39.58;99582.80;1735017;82;21009;-42
2022/07/23 08:21:22;;;;;;;2.75;1.50;;;;;;;27.89;39.47;99573.28;1742925;81;21499;-42
2022/07/23 08:23:49;;;;;;;4.40;1.70;;;;;;;28.01;39.97;99576.48;1749130;82;21087;-42
2022/07/23 08:26:18;;;;;;;2.50;1.57;;;;;;;28.15;39.28;99575.66;1749129;82;20902;-42
2022/07/23 08:28:45;;;;;;;1.70;1.50;;;;;;;28.26;39.78;99571.73;1749642;82;21035;-42
2022/07/23 08:31:12;;;;;;;2.05;1.62;;;;;;;28.34;39.22;99572.91;1749228;82;20941;-42
2022/07/23 08:33:39;;;;;;;2.17;1.62;;;;;;;28.42;39.78;99562.92;1743439;82;20985;-42
2022/07/23 08:36:08;;;;;;;2.10;1.40;;;;;;;28.55;39.61;99571.83;1749278;82;21082;-42
2022/07/23 08:38:35;;;;;;;7.03;2.50;;;;;;;28.63;38.73;99570.20;1749301;82;20929;-42
2022/07/23 08:41:04;;;;;;;4.42;1.95;;;;;;;28.71;37.96;99563.65;1749361;82;20984;-42
2022/07/23 08:43:34;;;;;;;2.85;1.87;;;;;;;28.74;37.90;99570.46;1749293;82;21566;-42
2022/07/23 08:46:01;;;;;;;2.90;1.52;;;;;;;28.83;38.32;99558.44;1721706;82;21080;-42
2022/07/23 08:48:34;;;;;;;4.20;1.65;;;;;;;28.88;37.88;99563.36;1749193;82;21342;-42
2022/07/23 08:51:03;;;;;;;2.80;1.50;;;;;;;28.88;37.90;99568.31;1749064;82;21522;-42
2022/07/23 08:53:30;;;;;;;1.70;1.30;;;;;;;28.87;38.47;99566.77;1749585;82;20937;-42
2022/07/23 08:56:03;;;;;;;1.57;1.47;;;;;;;28.84;37.75;99564.95;1749015;82;21321;-42
2022/07/23 08:58:31;;;;;;;3.47;1.70;;;;;;;28.78;38.29;99561.27;1749105;82;20997;-42
2022/07/23 09:00:59;;;;;;;2.52;1.30;;;;;;;28.73;37.03;99556.36;1749116;82;21980;-42
2022/07/23 09:03:29;;;;;;;1.82;1.40;;;;;;;28.73;37.35;99554.96;1749395;82;20925;-42
2022/07/23 09:05:58;;;;;;;3.08;1.50;;;;;;;28.87;37.58;99554.21;1749162;82;20949;-42
2022/07/23 09:08:40;;;;;;;3.92;1.55;;;;;;;29.03;37.36;99555.00;1766226;80;20994;-42
2022/07/23 09:11:16;;;;;;;3.95;1.70;;;;;;;29.16;37.22;99547.09;1779873;80;21076;-42
2022/07/23 09:13:58;;;;;;;7.75;1.72;;;;;;;29.30;37.48;99554.10;1780366;80;21106;-42
2022/07/23 09:16:29;;;;;;;2.83;1.47;;;;;;;29.47;37.07;99548.03;1779751;80;21011;-42
2022/07/23 09:19:03;;;;;;;4.25;1.50;;;;;;;29.63;36.64;99552.47;1780120;80;21537;-42
2022/07/23 09:21:38;;;;;;;2.25;1.32;;;;;;;29.84;35.80;99541.34;1777195;80;21025;-42
2022/07/23 09:24:10;;;;;;;2.60;1.52;;;;;;;29.96;36.20;99545.88;1774266;80;21009;-42
2022/07/23 09:26:46;;;;;;;2.47;1.57;;;;;;;30.05;35.87;99547.13;1774224;80;21160;-42
2022/07/23 09:29:24;;;;;;;2.58;1.57;;;;;;;30.02;35.81;99543.27;1774032;80;20906;-42
2022/07/23 09:31:59;;;;;;;1.62;1.40;;;;;;;29.89;35.28;99543.47;1773797;80;20993;-42
2022/07/23 09:34:32;;;;;;;2.22;1.45;;;;;;;29.74;35.57;99534.48;1774107;80;21089;-42
2022/07/23 09:37:14;;;;;;;2.65;1.42;;;;;;;29.71;36.34;99543.84;1773973;80;21570;-42
2022/07/23 09:39:42;;;;;;;3.83;1.40;;;;;;;29.78;35.98;99542.65;1774591;80;21801;-42
2022/07/23 09:42:22;;;;;;;;;;;;;;;29.86;35.53;99537.44;1776865;80;20977;-42
2022/07/23 09:44:51;;;;;;;5.62;1.62;;;;;;;29.83;35.81;99545.38;1774706;80;20128;-42
2022/07/23 09:47:19;;;;;;;2.35;1.40;;;;;;;29.60;35.58;99542.27;1774509;80;23543;-42
2022/07/23 09:50:08;;;;;;;1.47;1.37;;;;;;;29.59;36.05;99544.14;1774486;80;21025;-42
2022/07/23 09:52:48;;;;;;;4.55;1.50;;;;;;;29.65;35.78;99535.22;1774318;80;21246;-42
2022/07/23 09:55:18;;;;;;;2.08;1.32;;;;;;;29.67;36.10;99529.93;1774545;80;21484;-42
2022/07/23 09:57:50;;;;;;;3.15;1.30;;;;;;;29.70;35.73;99531.12;1774442;80;20976;-42
2022/07/23 10:00:16;;;;;;;3.05;1.52;;;;;;;29.80;35.77;99529.74;1773952;80;21523;-42
2022/07/23 10:02:43;;;;;;;1.57;1.30;;;;;;;29.96;36.18;99533.29;1774029;80;21002;-42
2022/07/23 10:05:25;;;;;;;3.05;1.30;;;;;;;30.08;35.68;99529.37;1684308;80;21096;-42
2022/07/23 10:07:54;;;;;;;1.93;1.40;;;;;;;30.16;35.31;99525.66;1713798;80;20969;-42
2022/07/23 10:10:40;;;;;;;2.20;1.35;;;;;;;30.28;34.45;99518.81;1773949;80;21554;-42
2022/07/23 10:15:49;;;;;;;1.82;1.20;;;;;;;30.71;33.17;99513.61;1773989;80;21049;-42
2022/07/23 10:18:18;;;;;;;2.52;1.22;;;;;;;30.95;32.27;99506.33;1774065;80;20969;-42
2022/07/23 10:20:45;;;;;;;2.37;1.27;;;;;;;31.05;31.69;99502.12;1774033;80;21030;-42
2022/07/23 10:23:37;;;;;;;1.35;1.20;;;;;;;31.15;31.54;99506.29;1723345;80;21017;-42
2022/07/23 10:26:21;;;;;;;5.40;1.52;;;;;;;31.32;32.17;99503.63;1773877;80;21005;-42
2022/07/23 10:29:03;;;;;;;2.45;1.47;;;;;;;31.59;32.49;99500.91;1774201;80;21040;-42
2022/07/23 10:31:51;;;;;;;1.55;1.07;;;;;;;31.87;30.75;99496.23;1773976;80;20922;-42
2022/07/23 10:34:33;;;;;;;2.55;1.05;;;;;;;32.19;29.42;99499.10;1774093;80;20926;-42
2022/07/23 10:37:09;;;;;;;2.37;1.22;;;;;;;32.48;29.35;99495.74;1773986;80;21011;-42
2022/07/23 10:39:37;;;;;;;1.98;1.45;;;;;;;32.76;29.77;99489.58;1774345;80;21551;-42
2022/07/23 10:42:16;;;;;;;1.77;1.30;;;;;;;33.05;29.25;99495.34;1774251;80;21004;-42
2022/07/23 10:44:47;;;;;;;2.43;1.10;;;;;;;33.30;29.01;99497.16;1774696;80;21275;-42
2022/07/23 10:47:45;;;;;;;5.05;1.45;;;;;;;33.53;28.96;99497.25;1774072;80;21540;-42
2022/07/23 10:50:25;;;;;;;1.45;1.30;;;;;;;33.74;27.78;99500.57;1753457;80;21603;-42
2022/07/23 10:53:13;;;;;;;2.47;1.30;;;;;;;33.94;27.60;99501.64;1774235;80;21069;-42
2022/07/23 10:55:44;;;;;;;2.75;1.20;;;;;;;34.18;27.78;99508.09;1774415;80;21067;-42
2022/07/23 10:58:12;;;;;;;2.47;1.27;;;;;;;34.44;26.44;99500.05;1774173;80;21879;-42
2022/07/23 11:00:39;;;;;;;1.75;1.17;;;;;;;34.67;26.10;99495.07;1774373;80;21354;-42
2022/07/23 11:03:37;;;;;;;2.40;1.27;;;;;;;34.77;26.25;99480.79;1774477;80;21473;-42
2022/07/23 11:06:00;;;;;;;2.05;1.20;;;;;;;34.87;26.04;99491.09;1773125;80;20934;-42
2022/07/23 11:08:28;;;;;;;2.35;0.90;;;;;;;35.07;25.43;99480.83;1774780;80;21012;-42
2022/07/23 11:11:05;;;;;;;1.72;1.17;;;;;;;35.28;25.32;99485.42;1774475;80;21080;-42
2022/07/23 11:13:42;;;;;;;1.02;1.00;;;;;;;35.52;25.63;99472.75;1774152;80;20970;-42
2022/07/23 11:16:20;;;;;;;1.87;1.30;;;;;;;35.76;24.94;99470.59;1774475;80;21163;-42
2022/07/23 11:18:59;;;;;;;3.23;1.00;;;;;;;35.82;24.67;99466.30;1773869;80;20973;-42
2022/07/23 11:21:32;;;;;;;1.62;1.07;;;;;;;35.85;24.49;99470.23;1774644;80;27195;-43
2022/07/23 11:24:02;;;;;;;1.90;1.32;;;;;;;35.89;24.20;99467.09;1768363;80;22375;-42
2022/07/23 11:26:48;;;;;;;2.50;1.12;;;;;;;35.97;24.42;99462.41;1774417;80;21017;-42
2022/07/23 11:29:35;;;;;;;1.42;1.07;;;;;;;36.12;23.88;99462.70;1774295;80;20965;-42
2022/07/23 11:32:10;;;;;;;1.40;1.10;;;;;;;36.31;24.08;99468.41;1774143;80;21080;-42
2022/07/23 11:34:49;;;;;;;1.42;1.05;;;;;;;36.51;23.78;99458.72;1769294;80;21439;-43
2022/07/23 11:37:38;;;;;;;2.05;1.00;;;;;;;36.63;23.89;99460.77;1773275;80;21749;-42
2022/07/23 11:40:09;;;;;;;3.27;1.10;;;;;;;36.64;23.16;99455.88;1773931;80;21000;-42
2022/07/23 11:42:41;;;;;;;1.27;1.00;;;;;;;36.65;23.18;99459.56;1774586;80;21028;-43
2022/07/23 11:45:09;;;;;;;1.80;1.20;;;;;;;36.95;23.10;99452.28;1772564;80;21037;-43
2022/07/23 11:47:36;;;;;;;4.90;1.10;;;;;;;37.30;22.75;99455.44;1774087;80;21002;-43
2022/07/23 11:50:06;;;;;;;4.10;0.90;;;;;;;37.62;22.90;99461.79;1774166;80;21246;-43
2022/07/23 11:52:33;;;;;;;1.82;1.10;;;;;;;37.95;22.13;99459.61;1774338;80;20945;-43
2022/07/23 11:55:05;;;;;;;3.05;1.40;;;;;;;38.27;21.17;99448.90;1752211;80;21037;-42